createdAt,value
2022-10-06T05:22:09.768Z,2.40
2022-10-06T05:27:30.972Z,2.80
2022-10-06T05:32:52.182Z,2.25
2022-10-06T05:38:13.329Z,1.80
2022-10-06T05:49:04.678Z,1.42
2022-10-06T05:54:27.158Z,1.10
2022-10-06T05:59:48.018Z,1.20
2022-10-06T06:05:09.240Z,0.98
2022-10-06T06:16:04.584Z,1.10
2022-10-06T06:21:29.140Z,0.80
2022-10-06T06:26:50.366Z,0.90
2022-10-06T06:32:11.136Z,0.70
2022-10-06T06:37:32.183Z,0.65
2022-10-06T06:42:54.922Z,0.93
2022-10-06T06:48:16.922Z,0.70
2022-10-06T06:53:41.601Z,0.77
2022-10-06T06:59:10.820Z,0.90
2022-10-06T07:04:37.274Z,0.70
2022-10-06T07:10:00.006Z,0.90
2022-10-06T07:15:39.338Z,0.73
2022-10-06T07:21:18.689Z,1.00
2022-10-06T07:26:39.867Z,0.52
2022-10-06T07:32:00.838Z,1.10
2022-10-06T07:37:21.612Z,1.23
2022-10-06T07:42:48.886Z,1.15
2022-10-06T07:48:19.886Z,0.80
2022-10-06T07:53:50.204Z,0.88
2022-10-06T07:59:20.503Z,1.00
2022-10-06T08:04:41.611Z,1.23
2022-10-06T08:10:02.876Z,1.30
2022-10-06T08:15:23.710Z,1.27
2022-10-06T08:20:47.794Z,1.27
2022-10-06T08:26:10.316Z,1.30
2022-10-06T08:31:32.048Z,0.95
2022-10-06T08:37:18.727Z,1.52
2022-10-06T08:42:48.541Z,1.20
2022-10-06T08:48:36.884Z,1.45
2022-10-06T08:54:24.758Z,1.50
2022-10-06T08:59:49.052Z,1.35
2022-10-06T09:05:16.058Z,1.48
2022-10-06T09:10:58.490Z,1.45
2022-10-06T09:16:30.798Z,1.27
2022-10-06T09:21:53.787Z,1.20
2022-10-06T09:27:23.135Z,1.20
2022-10-06T09:32:48.336Z,1.40
2022-10-06T09:38:11.591Z,1.75
2022-10-06T09:43:32.834Z,1.45
2022-10-06T09:49:26.862Z,1.50
2022-10-06T09:55:09.721Z,1.50
2022-10-06T10:00:35.861Z,1.70
2022-10-06T10:05:56.793Z,1.77
2022-10-06T10:11:42.094Z,1.40
2022-10-06T10:17:34.781Z,1.50
2022-10-06T10:22:58.555Z,1.52
2022-10-06T10:28:19.480Z,1.30
2022-10-06T10:34:24.047Z,1.42
2022-10-06T10:39:56.812Z,1.75
2022-10-06T10:45:32.296Z,1.20
2022-10-06T10:51:07.003Z,1.90
2022-10-06T10:56:31.606Z,1.60
2022-10-06T11:02:16.839Z,1.95
2022-10-06T11:07:53.394Z,2.42
2022-10-06T11:13:23.819Z,2.10
2022-10-06T11:19:22.654Z,1.38
2022-10-06T11:25:05.529Z,2.70
2022-10-06T11:30:26.913Z,2.28
2022-10-06T11:35:48.958Z,1.80
2022-10-06T11:41:34.882Z,4.68
2022-10-06T11:47:08.751Z,4.20
2022-10-06T11:52:29.460Z,3.58
2022-10-06T12:04:09.811Z,1.88
2022-10-06T12:09:40.819Z,1.70
2022-10-06T12:17:06.133Z,2.03
2022-10-06T12:21:24.756Z,1.60
2022-10-06T12:27:02.867Z,1.80
2022-10-06T12:32:54.995Z,1.73
2022-10-06T12:38:31.072Z,1.80
2022-10-06T12:43:54.969Z,1.45
2022-10-06T12:49:35.339Z,1.40
2022-10-06T12:54:59.851Z,1.50
2022-10-06T13:00:36.348Z,1.80
2022-10-06T13:06:03.693Z,1.60
2022-10-06T13:11:28.255Z,1.50
2022-10-06T13:16:49.105Z,1.50
2022-10-06T13:22:13.764Z,1.48
2022-10-06T13:27:34.758Z,1.30
2022-10-06T13:32:57.000Z,1.48
2022-10-06T13:38:18.553Z,1.25
2022-10-06T13:43:45.823Z,2.00
2022-10-06T13:49:24.737Z,1.70
2022-10-06T14:10:03.625Z,1.70
2022-10-06T14:15:27.266Z,1.73
2022-10-06T14:20:50.718Z,1.48
2022-10-06T14:26:13.478Z,1.42
2022-10-06T14:31:34.980Z,1.70
2022-10-06T14:36:57.237Z,1.63
2022-10-06T14:42:18.943Z,1.48
2022-10-06T14:47:39.969Z,1.67
2022-10-06T14:53:01.925Z,1.20
2022-10-06T14:58:22.987Z,1.83
2022-10-06T15:03:50.795Z,1.48
2022-10-06T15:09:12.528Z,1.08
2022-10-06T15:14:34.965Z,1.80
2022-10-06T15:19:56.455Z,1.10
2022-10-06T15:25:35.893Z,1.90
2022-10-06T15:30:57.303Z,1.63
2022-10-06T15:36:20.360Z,1.40
2022-10-06T15:41:42.878Z,1.50
2022-10-06T15:47:07.667Z,1.70
2022-10-06T15:52:32.531Z,1.38
2022-10-06T15:57:53.353Z,1.55
2022-10-06T16:03:27.115Z,1.30
2022-10-06T16:08:48.576Z,1.42
2022-10-06T16:14:09.854Z,1.55
2022-10-06T16:19:32.474Z,1.70
2022-10-06T16:24:53.133Z,1.42
2022-10-06T16:30:14.309Z,1.83
2022-10-06T16:35:34.843Z,1.95
2022-10-06T16:46:21.655Z,1.42
2022-10-06T16:51:45.737Z,1.58
2022-10-06T16:57:07.396Z,1.67
2022-10-06T17:02:28.082Z,2.28
2022-10-06T17:13:09.717Z,1.58
2022-10-06T17:23:58.122Z,1.42
2022-10-06T17:29:21.716Z,1.75
2022-10-06T17:34:42.330Z,1.60
2022-10-06T17:45:25.063Z,6.40
2022-10-06T17:50:57.002Z,3.92
2022-10-06T17:56:20.642Z,2.45
2022-10-06T18:01:41.542Z,1.83
2022-10-06T18:07:03.828Z,2.30
2022-10-06T18:12:25.040Z,2.33
2022-10-06T18:23:09.950Z,2.55
2022-10-06T18:28:31.202Z,2.15
2022-10-06T18:39:33.593Z,2.25
2022-10-06T18:45:13.124Z,1.85
2022-10-06T18:50:35.179Z,2.00
2022-10-06T18:55:57.506Z,2.00
2022-10-06T19:01:19.585Z,2.40
2022-10-06T19:06:44.074Z,2.10
2022-10-06T19:12:05.016Z,2.08
2022-10-06T19:17:25.876Z,2.22
2022-10-06T19:22:47.721Z,2.42
2022-10-06T19:28:09.186Z,2.50
2022-10-06T19:33:31.799Z,2.67
2022-10-06T19:38:53.970Z,2.15
2022-10-06T19:44:15.485Z,2.78
2022-10-06T19:49:38.205Z,2.65
2022-10-06T19:54:59.088Z,1.98
2022-10-06T20:00:20.155Z,1.92
2022-10-06T20:05:41.041Z,2.17
2022-10-06T20:16:24.239Z,2.72
2022-10-06T20:21:45.938Z,2.97
2022-10-06T20:27:06.649Z,2.70
2022-10-06T20:32:27.657Z,2.72
2022-10-06T20:37:48.605Z,4.68
2022-10-06T20:43:09.524Z,5.22
2022-10-06T20:48:33.287Z,4.05
2022-10-06T20:53:54.412Z,4.55
2022-10-06T20:59:15.900Z,4.20
2022-10-06T21:09:57.631Z,4.45
2022-10-06T21:15:18.402Z,3.72
2022-10-06T21:20:44.393Z,3.85
2022-10-06T21:26:08.011Z,3.33
2022-10-06T21:31:29.174Z,3.58
2022-10-06T21:42:10.805Z,3.30
2022-10-06T21:47:31.690Z,3.58
2022-10-06T21:52:52.571Z,3.20
2022-10-06T21:58:13.617Z,3.60
